Time;durP1;ratioP1;P1;durP2;ratioP2;P2;SDS_P1;SDS_P2;PMS_P1;PMS_P2;Temp;Humidity;BMP_temperature;BMP_pressure;BME280_temperature;BME280_humidity;BME280_pressure;Samples;Min_cycle;Max_cycle;Signal;HPM_P1;HPM_P2
2023/12/01 00:02:28;;;;;;;27.92;13.63;;;;;;;;;;6224332;22;20012;-90
2023/12/01 00:04:54;;;;;;;31.33;13.93;;;;;;;;;;6225318;22;20016;-89
2023/12/01 00:07:20;;;;;;;29.60;14.70;;;;;;;;;;6275459;22;20016;-88
2023/12/01 00:09:46;;;;;;;36.92;14.13;;;;;;;;;;6224706;22;20106;-90
2023/12/01 00:12:12;;;;;;;32.72;14.40;;;;;;;;;;6224502;22;20067;-89
2023/12/01 00:14:41;;;;;;;34.33;16.05;;;;;;;;;;6223910;22;20015;-89
2023/12/01 00:17:07;;;;;;;33.95;16.40;;;;;;;;;;6224229;22;20016;-91
2023/12/01 00:19:33;;;;;;;34.60;17.85;;;;;;;;;;6276150;22;20057;-88
2023/12/01 00:21:59;;;;;;;33.45;14.77;;;;;;;;;;6278972;22;20016;-89
2023/12/01 00:24:25;;;;;;;30.52;15.32;;;;;;;;;;6227156;22;20088;-91
2023/12/01 00:26:51;;;;;;;32.63;14.98;;;;;;;;;;6276357;22;20368;-90
2023/12/01 00:29:17;;;;;;;29.08;14.52;;;;;;;;;;6304078;22;20348;-91
2023/12/01 00:31:43;;;;;;;30.25;13.27;;;;;;;;;;6279770;22;20095;-89
2023/12/01 00:34:09;;;;;;;25.48;12.98;;;;;;;;;;6279275;22;20073;-87
2023/12/01 00:36:35;;;;;;;30.60;14.10;;;;;;;;;;6279828;22;20012;-91
2023/12/01 00:39:02;;;;;;;35.63;14.32;;;;;;;;;;6278239;22;20087;-90
2023/12/01 00:41:28;;;;;;;25.25;12.45;;;;;;;;;;6275197;22;20011;-89
2023/12/01 00:43:54;;;;;;;30.50;13.68;;;;;;;;;;6274631;22;20020;-90
2023/12/01 00:46:20;;;;;;;22.73;12.07;;;;;;;;;;6274526;22;20034;-90
2023/12/01 00:48:46;;;;;;;32.00;13.95;;;;;;;;;;6274683;22;20583;-90
2023/12/01 00:51:19;;;;;;;28.10;12.77;;;;;;;;;;6248882;22;20051;-89
2023/12/01 00:53:45;;;;;;;25.83;13.25;;;;;;;;;;6274597;22;20020;-88
2023/12/01 00:56:11;;;;;;;29.88;16.17;;;;;;;;;;6274032;22;20019;-94
2023/12/01 00:58:38;;;;;;;26.60;13.75;;;;;;;;;;6273909;22;20016;-90
2023/12/01 01:01:05;;;;;;;25.40;11.93;;;;;;;;;;6223620;22;20011;-89
2023/12/01 01:03:32;;;;;;;27.45;13.20;;;;;;;;;;6274203;22;20027;-92
2023/12/01 01:05:58;;;;;;;24.65;12.63;;;;;;;;;;6273998;22;20011;-89
2023/12/01 01:08:24;;;;;;;23.15;12.18;;;;;;;;;;6274350;22;20142;-92
2023/12/01 01:10:50;;;;;;;26.52;13.10;;;;;;;;;;6228665;22;20023;-92
2023/12/01 01:13:16;;;;;;;23.90;13.65;;;;;;;;;;6278496;22;20094;-92
2023/12/01 01:15:42;;;;;;;22.05;11.95;;;;;;;;;;6276649;22;20043;-91
2023/12/01 01:18:08;;;;;;;26.45;12.32;;;;;;;;;;6277881;22;20024;-95
2023/12/01 01:20:34;;;;;;;28.02;14.20;;;;;;;;;;6227023;22;20020;-90
2023/12/01 01:23:00;;;;;;;25.50;12.60;;;;;;;;;;6227518;22;20012;-93
2023/12/01 01:25:26;;;;;;;22.88;12.13;;;;;;;;;;6252366;22;20015;-92
2023/12/01 01:27:52;;;;;;;26.35;12.45;;;;;;;;;;6228734;22;20020;-91
2023/12/01 01:30:18;;;;;;;27.52;12.27;;;;;;;;;;6279272;22;20022;-90
2023/12/01 01:32:45;;;;;;;28.55;13.48;;;;;;;;;;6230437;22;20031;-90
2023/12/01 01:35:11;;;;;;;26.38;13.95;;;;;;;;;;6255919;22;20015;-90
2023/12/01 01:37:37;;;;;;;25.38;13.20;;;;;;;;;;6307458;22;20062;-90
2023/12/01 01:40:04;;;;;;;28.95;13.80;;;;;;;;;;6280753;22;20022;-91
2023/12/01 01:42:30;;;;;;;25.35;13.98;;;;;;;;;;6276087;22;20043;-94
2023/12/01 01:44:56;;;;;;;28.77;13.63;;;;;;;;;;6222817;22;20055;-91
2023/12/01 01:47:23;;;;;;;25.70;13.40;;;;;;;;;;6273865;22;20019;-91
2023/12/01 01:49:49;;;;;;;25.98;14.70;;;;;;;;;;6223604;22;20082;-94
2023/12/01 01:52:15;;;;;;;24.80;12.98;;;;;;;;;;6223281;22;20031;-90
2023/12/01 01:54:41;;;;;;;25.67;12.95;;;;;;;;;;6223521;22;20348;-91
2023/12/01 01:57:08;;;;;;;29.40;15.18;;;;;;;;;;6300630;22;20015;-91
2023/12/01 01:59:34;;;;;;;28.67;14.90;;;;;;;;;;6275635;22;20015;-92
2023/12/01 02:02:00;;;;;;;25.77;13.93;;;;;;;;;;6224647;22;20099;-92
2023/12/01 02:04:26;;;;;;;26.10;13.02;;;;;;;;;;6250694;22;20016;-96
2023/12/01 02:06:53;;;;;;;23.98;13.23;;;;;;;;;;6225821;22;20022;-96
2023/12/01 02:09:19;;;;;;;28.73;13.73;;;;;;;;;;6275683;22;20015;-94
2023/12/01 02:11:45;;;;;;;32.22;15.75;;;;;;;;;;6275929;22;20020;-93
2023/12/01 02:14:11;;;;;;;24.58;14.30;;;;;;;;;;6225219;22;20015;-92
2023/12/01 02:16:45;;;;;;;32.88;14.50;;;;;;;;;;6275476;22;20016;-96
2023/12/01 02:19:14;;;;;;;;;;;-0.30;99.90;;;;;;6276979;22;20024;-94
2023/12/01 02:21:44;;;;;;;28.13;13.85;;;;;;;;;;6275990;22;19919;-92
2023/12/01 02:24:10;;;;;;;29.33;14.63;;;;;;;;;;6225148;22;20470;-93
2023/12/01 02:26:36;;;;;;;29.52;15.90;;;;;;;;;;6301770;22;20016;-93
2023/12/01 02:29:04;;;;;;;30.20;14.88;;;;;;;;;;6250479;22;20016;-93
2023/12/01 02:31:31;;;;;;;31.05;15.30;;;;;;;;;;6275202;22;20020;-93
2023/12/01 02:33:57;;;;;;;33.22;15.90;;;;;;;;;;6275213;22;20023;-93
2023/12/01 02:36:23;;;;;;;33.92;15.98;;;;;;;;;;6224758;22;20022;-92
2023/12/01 02:38:49;;;;;;;38.80;18.00;;;;;;;;;;6224752;22;20071;-91
2023/12/01 02:41:17;;;;;;;29.63;15.18;;;;;;;;;;6275344;22;20342;-93
2023/12/01 02:43:44;;;;;;;37.50;17.73;;;;;;;;;;6275937;22;20015;-95
2023/12/01 02:46:12;;;;;;;32.33;15.48;;;;;;;;;;6275611;22;20479;-95
2023/12/01 02:48:39;;;;;;;35.00;15.98;;;;;;;;;;6225013;22;20012;-94
2023/12/01 02:51:05;;;;;;;35.40;17.55;;;;;;;;;;6275132;22;20026;-92
2023/12/01 02:53:32;;;;;;;35.60;18.23;;;;;;;;;;6275319;22;20011;-93
2023/12/01 02:55:58;;;;;;;44.30;18.30;;;;;;;;;;6225397;22;20016;-91
2023/12/01 02:58:24;;;;;;;31.30;14.82;;;;;;;;;;6250378;22;20047;-93
2023/12/01 03:00:50;;;;;;;37.67;17.05;;;;;;;;;;6275259;22;20114;-93
2023/12/01 03:03:17;;;;;;;34.92;16.80;;;;;;;;;;6275248;22;20031;-92
2023/12/01 03:05:43;;;;;;;35.53;16.77;;;;;;;;;;6224251;22;20023;-95
2023/12/01 03:08:09;;;;;;;35.30;16.58;;;;;;;;;;6275171;22;20011;-93
2023/12/01 03:10:35;;;;;;;38.58;17.50;;;;;;;;;;6274592;22;20154;-90
2023/12/01 03:13:01;;;;;;;31.83;14.82;;;;;;;;;;6249519;22;20348;-92
2023/12/01 03:15:29;;;;;;;37.92;15.23;;;;;;;;;;6274301;22;20043;-90
2023/12/01 03:17:55;;;;;;;37.53;16.08;;;;;;;;;;6274997;22;20106;-91
2023/12/01 03:20:24;;;;;;;37.20;16.92;;;;;;;;;;6274338;22;20031;-90
2023/12/01 03:22:51;;;;;;;36.25;17.17;;;;;;;;;;6274211;22;20027;-90
2023/12/01 03:25:17;;;;;;;46.55;16.55;;;;;;;;;;6223735;22;20018;-90
2023/12/01 03:27:45;;;;;;;37.65;16.85;;;;;;;;;;6224891;22;20150;-91
2023/12/01 03:30:15;;;;;;;38.28;15.65;;;;;;;;;;6277887;22;20016;-92
2023/12/01 03:32:45;;;;;;;30.20;15.68;;;;;;;;;;6277459;22;20090;-94
2023/12/01 03:35:12;;;;;;;37.63;17.65;;;;;;;;;;6276427;22;20015;-93
2023/12/01 03:37:38;;;;;;;35.08;17.90;;;;;;;;;;6225364;22;20015;-95
2023/12/01 03:40:07;;;;;;;40.70;17.02;;;;;;;;;;6275549;22;20015;-95
2023/12/01 03:42:34;;;;;;;35.75;16.20;;;;;;;;;;6225500;22;20018;-94
2023/12/01 03:45:00;;;;;;;32.78;16.90;;;;;;;;;;6249748;22;20020;-96
2023/12/01 03:47:27;;;;;;;35.85;15.98;;;;;;;;;;6301368;22;20011;-95
2023/12/01 03:49:53;;;;;;;33.85;16.48;;;;;;;;;;6224798;22;20102;-93
2023/12/01 03:52:19;;;;;;;31.85;14.45;;;;;;;;;;6275719;22;20041;-95
2023/12/01 03:54:51;;;;;;;46.28;16.98;;;;;;;;;;6301111;22;20027;-95
2023/12/01 03:57:17;;;;;;;34.85;15.05;;;;;;;;;;6275668;22;20074;-96
2023/12/01 03:59:43;;;;;;;35.92;16.35;;;;;;;;;;6224610;22;20020;-94
2023/12/01 04:02:09;;;;;;;35.97;16.90;;;;;;;;;;6249207;22;20011;-94
2023/12/01 04:04:35;;;;;;;37.42;15.75;;;;;;;;;;6224629;22;20016;-93
2023/12/01 04:07:01;;;;;;;40.40;16.15;;;;;;;;;;6275142;22;20547;-91
2023/12/01 04:09:27;;;;;;;32.55;14.75;;;;;;;;;;6249816;22;20456;-92
2023/12/01 04:11:54;;;;;;;37.92;16.05;;;;;;;;;;6224089;22;20146;-92
2023/12/01 04:14:20;;;;;;;37.75;16.35;;;;;;;;;;6276118;22;20020;-90
2023/12/01 04:16:47;;;;;;;34.13;16.58;;;;;;;;;;6223629;22;20349;-88
2023/12/01 04:19:13;;;;;;;31.85;16.67;;;;;;;;;;6274025;22;20333;-90
2023/12/01 04:21:39;;;;;;;32.92;15.43;;;;;;;;;;6274222;22;20322;-88
2023/12/01 04:24:06;;;;;;;34.15;16.02;;;;;;;;;;6249440;22;20023;-90
2023/12/01 04:26:32;;;;;;;32.78;14.40;;;;;;;;;;6274234;22;20471;-89
2023/12/01 04:28:59;;;;;;;33.28;14.73;;;;;;;;;;6223596;22;20109;-88
2023/12/01 04:31:25;;;;;;;30.50;16.15;;;;;;;;;;6223431;22;20020;-88
2023/12/01 04:33:51;;;;;;;30.10;14.68;;;;;;;;;;6223740;22;20086;-89
2023/12/01 04:36:17;;;;;;;30.63;14.68;;;;;;;;;;6223833;22;20338;-92
2023/12/01 04:38:43;;;;;;;33.60;14.02;;;;;;;;;;6274152;22;20026;-87
2023/12/01 04:41:10;;;;;;;33.75;16.00;;;;;;;;;;6248221;22;20057;-91
2023/12/01 04:43:39;;;;;;;33.72;13.75;;;;;;;;;;6274462;22;20125;-88
2023/12/01 04:46:06;;;;;;;36.47;14.93;;;;;;;;;;6248556;22;20015;-90
2023/12/01 04:48:32;;;;;;;33.67;15.23;;;;;;;;;;6273744;22;20026;-91
2023/12/01 04:50:58;;;;;;;30.35;15.68;;;;;;;;;;6273936;22;20051;-91
2023/12/01 04:53:24;;;;;;;32.67;15.38;;;;;;;;;;6274491;22;20051;-90
2023/12/01 04:55:50;;;;;;;33.08;14.18;;;;;;;;;;6274205;22;20016;-89
2023/12/01 04:58:16;;;;;;;31.48;13.93;;;;;;;;;;6249385;22;20449;-90
2023/12/01 05:00:42;;;;;;;33.08;15.30;;;;;;;;;;6273732;22;20075;-89
2023/12/01 05:03:09;;;;;;;33.25;14.30;;;;;;;;;;6248804;22;20085;-91
2023/12/01 05:05:36;;;;;;;29.55;13.43;;;;;;;;;;6248649;22;20015;-89
2023/12/01 05:08:07;;;;;;;32.28;13.88;;;;;;;;;;6248679;22;20062;-92
2023/12/01 05:10:33;;;;;;;29.65;14.27;;;;;;;;;;6248351;22;20020;-91
2023/12/01 05:13:01;;;;;;;34.42;15.48;;;;;;;;;;6273914;22;20085;-92
2023/12/01 05:15:28;;;;;;;31.95;15.60;;;;;;;;;;6273158;22;20064;-93
2023/12/01 05:17:56;;;;;;;28.40;13.55;;;;;;;;;;6248914;22;20508;-92
2023/12/01 05:20:24;;;;;;;28.33;13.55;;;;;;;;;;6273365;22;20026;-92
2023/12/01 05:22:54;;;;;;;29.85;15.18;;;;;;;;;;6249311;22;20016;-93
2023/12/01 05:25:21;;;;;;;27.73;13.98;;;;;;;;;;6273591;22;20481;-92
2023/12/01 05:27:48;;;;;;;31.98;14.18;;;;;;;;;;6273549;22;20020;-90
2023/12/01 05:30:15;;;;;;;28.98;14.63;;;;;;;;;;6248337;22;20019;-91
2023/12/01 05:32:42;;;;;;;33.33;15.50;;;;;;;;;;6275416;22;20019;-92
2023/12/01 05:35:11;;;;;;;37.10;14.48;;;;;;;;;;6275746;22;20022;-89
2023/12/01 05:37:50;;;;;;;30.90;14.20;;;;;;;;;;6275557;22;20012;-93
2023/12/01 05:40:22;;;;;;;36.10;15.68;;;;;;;;;;6276269;22;20074;-92
2023/12/01 05:42:49;;;;;;;38.45;14.48;;;;;;;;;;6250686;22;20464;-92
2023/12/01 05:45:18;;;;;;;41.05;16.40;;;;;;;;;;6247928;22;20016;-93
2023/12/01 05:47:45;;;;;;;42.55;16.77;;;;;;;;;;6248781;22;20012;-92
2023/12/01 05:50:15;;;;;;;33.28;15.63;;;;;;;;;;6247989;22;20070;-93
2023/12/01 05:52:45;;;;;;;38.05;14.57;;;;;;;;;;6221752;22;20024;-93
2023/12/01 05:55:15;;;;;;;33.33;14.70;;;;;;;;;;6246891;22;20020;-89
2023/12/01 05:57:48;;;;;;;35.50;15.45;;;;;;;;;;6268572;22;20023;-90
2023/12/01 06:00:15;;;;;;;34.20;15.75;;;;;;;;;;6268958;22;20067;-92
2023/12/01 06:02:43;;;;;;;35.03;15.90;;;;;;;;;;6268678;22;20113;-92
2023/12/01 06:05:32;;;;;;;30.52;15.27;;;;;;;;;;6242338;22;20317;-91
2023/12/01 06:07:59;;;;;;;39.88;14.85;;;;;;;;;;6226156;22;20281;-92
2023/12/01 06:10:26;;;;;;;27.73;13.70;;;;;;;;;;6269412;22;20457;-95
2023/12/01 06:12:53;;;;;;;35.05;15.68;;;;;;;;;;6270308;22;20094;-92
2023/12/01 06:15:19;;;;;;;34.25;13.77;;;;;;;;;;6271550;22;20027;-94
2023/12/01 06:17:46;;;;;;;28.73;13.70;;;;;;;;;;6247260;22;20273;-90
2023/12/01 06:20:19;;;;;;;31.50;13.75;;;;;;;;;;6248182;22;20031;-91
2023/12/01 06:22:46;;;;;;;26.73;13.07;;;;;;;;;;6250153;22;20015;-92
2023/12/01 06:25:13;;;;;;;26.85;13.20;;;;;;;;;;6274555;22;20079;-91
2023/12/01 06:27:40;;;;;;;31.88;14.18;;;;;;;;;;6248375;22;20012;-92
2023/12/01 06:30:12;;;;;;;32.97;14.52;;;;;;;;;;6249410;22;20020;-92
2023/12/01 06:32:39;;;;;;;41.58;16.52;;;;;;;;;;6249762;22;20012;-92
2023/12/01 06:35:07;;;;;;;30.75;14.60;;;;;;;;;;6252599;22;20094;-91
2023/12/01 06:37:33;;;;;;;34.92;14.05;;;;;;;;;;6275129;22;20023;-93
2023/12/01 06:40:00;;;;;;;32.58;15.55;;;;;;;;;;6248691;22;20070;-91
2023/12/01 06:42:26;;;;;;;32.53;13.55;;;;;;;;;;6273259;22;20076;-93
2023/12/01 06:44:52;;;;;;;33.40;13.93;;;;;;;;;;6245671;22;20460;-93
2023/12/01 06:47:21;;;;;;;33.60;14.38;;;;;;;;;;6245947;22;20436;-93
2023/12/01 06:49:47;;;;;;;27.33;12.80;;;;;;;;;;6246628;22;20074;-94
2023/12/01 06:52:15;;;;;;;33.50;15.68;;;;;;;;;;6247143;22;20401;-91
2023/12/01 06:54:41;;;;;;;30.45;15.18;;;;;;;;;;6244548;22;20015;-91
2023/12/01 06:57:09;;;;;;;29.83;14.57;;;;;;;;;;6220334;22;20154;-92
2023/12/01 06:59:35;;;;;;;31.73;13.30;;;;;;;;;;6252446;22;20027;-91
2023/12/01 07:02:04;;;;;;;30.45;13.75;;;;;;;;;;6249715;22;20015;-92
2023/12/01 07:04:32;;;;;;;33.28;14.23;;;;;;;;;;6275828;22;20047;-92
2023/12/01 07:07:01;;;;;;;32.78;15.52;;;;;;;;;;6250186;22;20016;-91
2023/12/01 07:09:28;;;;;;;29.60;13.13;;;;;;;;;;6250165;22;20047;-91
2023/12/01 07:11:54;;;;;;;33.50;14.80;;;;;;;;;;6250003;22;20344;-91
2023/12/01 07:14:23;;;;;;;31.05;13.40;;;;;;;;;;6250598;22;20046;-91
2023/12/01 07:16:50;;;;;;;37.47;15.15;;;;;;;;;;6275541;22;20384;-92
2023/12/01 07:19:18;;;;;;;29.38;13.85;;;;;;;;;;6250272;22;20027;-92
2023/12/01 07:21:45;;;;;;;31.90;14.45;;;;;;;;;;6249265;22;20087;-92
2023/12/01 07:24:14;;;;;;;32.35;14.55;;;;;;;;;;6275301;22;20055;-92
2023/12/01 07:26:40;;;;;;;33.67;14.82;;;;;;;;;;6249879;22;20092;-92
2023/12/01 07:29:07;;;;;;;30.67;14.20;;;;;;;;;;6275978;22;20046;-92
2023/12/01 07:31:33;;;;;;;28.95;13.85;;;;;;;;;;6276019;22;20026;-91
2023/12/01 07:34:00;;;;;;;37.35;16.15;;;;;;;;;;6250896;22;20444;-93
2023/12/01 07:36:28;;;;;;;33.00;13.93;;;;;;;;;;6250295;22;20023;-92
2023/12/01 07:38:55;;;;;;;29.52;13.75;;;;;;;;;;6248654;22;20054;-91
2023/12/01 07:41:21;;;;;;;27.10;12.93;;;;;;;;;;6247909;22;20016;-92
2023/12/01 07:43:47;;;;;;;24.65;12.77;;;;;;;;;;6250424;22;20020;-92
2023/12/01 07:46:16;;;;;;;32.60;14.35;;;;;;;;;;6249815;22;20012;-93
2023/12/01 07:48:42;;;;;;;34.72;16.10;;;;;;;;;;6255333;22;20015;-93
2023/12/01 07:51:08;;;;;;;32.25;15.20;;;;;;;;;;6252161;22;20016;-93
2023/12/01 07:53:34;;;;;;;42.92;16.38;;;;;;;;;;6251335;22;20018;-92
2023/12/01 07:56:03;;;;;;;32.45;14.52;;;;;;;;;;6253226;22;20024;-95
2023/12/01 07:58:29;;;;;;;30.13;15.73;;;;;;;;;;6228993;22;20019;-92
2023/12/01 08:00:57;;;;;;;32.15;15.43;;;;;;;;;;6254814;22;20015;-94
2023/12/01 08:03:24;;;;;;;43.65;17.52;;;;;;;;;;6255162;22;20012;-93
2023/12/01 08:05:50;;;;;;;37.72;17.17;;;;;;;;;;6230058;22;20039;-92
2023/12/01 08:08:16;;;;;;;36.97;17.10;;;;;;;;;;6254852;22;20015;-92
2023/12/01 08:10:42;;;;;;;35.30;15.57;;;;;;;;;;6254322;22;20020;-93
2023/12/01 08:13:08;;;;;;;37.17;17.00;;;;;;;;;;6230395;22;20030;-92
2023/12/01 08:15:34;;;;;;;36.65;17.77;;;;;;;;;;6254073;22;20055;-91
2023/12/01 08:18:12;;;;;;;37.53;17.25;;;;;;;;;;6222187;22;20019;-92
2023/12/01 08:20:52;;;;;;;36.95;16.63;;;;;;;;;;6230843;22;20035;-90
2023/12/01 08:23:18;;;;;;;33.78;15.75;;;;;;;;;;6221788;22;20016;-93
2023/12/01 08:25:46;;;;;;;41.55;19.15;;;;;;;;;;6220858;22;20106;-93
2023/12/01 08:28:12;;;;;;;42.50;16.92;;;;;;;;;;6222208;22;20016;-94
2023/12/01 08:30:38;;;;;;;35.42;16.20;;;;;;;;;;6246996;22;20071;-93
2023/12/01 08:33:05;;;;;;;40.33;17.65;;;;;;;;;;6242969;22;20022;-91
2023/12/01 08:35:34;;;;;;;39.97;17.92;;;;;;;;;;6238438;22;20503;-95
2023/12/01 08:38:00;;;;;;;43.35;21.50;;;;;;;;;;6239291;22;20047;-94
2023/12/01 08:40:26;;;;;;;41.28;19.45;;;;;;;;;;6213119;22;20029;-93
2023/12/01 08:42:53;;;;;;;38.78;18.58;;;;;;;;;;6183725;22;20074;-94
2023/12/01 08:45:19;;;;;;;42.10;17.67;;;;;;;;;;6234852;22;20456;-94
2023/12/01 08:47:46;;;;;;;39.95;17.48;;;;;;;;;;6237191;22;20535;-93
2023/12/01 08:50:12;;;;;;;41.58;17.80;;;;;;;;;;6235349;22;20310;-93
2023/12/01 08:52:41;;;;;;;32.92;15.02;;;;;;;;;;6235446;22;20370;-91
2023/12/01 08:55:07;;;;;;;31.23;15.45;;;;;;;;;;6235056;22;20448;-92
2023/12/01 08:57:34;;;;;;;40.40;17.92;;;;;;;;;;6232038;22;20016;-92
2023/12/01 09:00:00;;;;;;;32.45;15.65;;;;;;;;;;6184104;22;20093;-91
2023/12/01 09:02:26;;;;;;;33.53;16.05;;;;;;;;;;6231770;22;20441;-92
2023/12/01 09:04:52;;;;;;;39.08;16.13;;;;;;;;;;6231607;22;20043;-91
2023/12/01 09:07:18;;;;;;;36.00;16.65;;;;;;;;;;6209651;22;20019;-91
2023/12/01 09:09:44;;;;;;;35.38;15.35;;;;;;;;;;6208246;22;20457;-91
2023/12/01 09:12:10;;;;;;;36.17;17.30;;;;;;;;;;6240668;22;20027;-93
2023/12/01 09:14:37;;;;;;;31.65;15.98;;;;;;;;;;6242145;22;20074;-92
2023/12/01 09:17:03;;;;;;;34.63;15.35;;;;;;;;;;6233737;22;20031;-93
2023/12/01 09:19:32;;;;;;;32.88;14.32;;;;;;;;;;6222007;22;20070;-93
2023/12/01 09:21:58;;;;;;;34.80;16.67;;;;;;;;;;6220425;22;20106;-95
2023/12/01 09:24:24;;;;;;;33.88;15.38;;;;;;;;;;6222142;22;20027;-95
2023/12/01 09:26:50;;;;;;;33.50;14.77;;;;;;;;;;6243554;22;20121;-93
2023/12/01 09:29:17;;;;;;;36.45;15.80;;;;;;;;;;6232515;23;20747;-95
2023/12/01 09:31:47;;;;;;;36.15;16.10;;;;;;;;;;6267012;22;20031;-95
2023/12/01 09:34:13;;;;;;;32.25;15.93;;;;;;;;;;6242216;22;20027;-94
2023/12/01 09:36:41;;;;;;;34.05;14.88;;;;;;;;;;6212917;22;20047;-94
2023/12/01 09:39:08;;;;;;;27.02;13.75;;;;;;;;;;6262052;22;20078;-94
2023/12/01 09:41:40;;;;;;;29.60;15.55;;;;;;;;;;6213351;22;20091;-94
2023/12/01 09:44:07;;;;;;;27.50;14.18;;;;;;;;;;6213189;22;20020;-95
2023/12/01 09:46:34;;;;;;;29.15;14.27;;;;;;;;;;6211794;22;20359;-92
2023/12/01 09:49:04;;;;;;;30.48;14.60;;;;;;;;;;6263755;22;20020;-94
2023/12/01 09:51:34;;;;;;;40.97;15.20;;;;;;;;;;6212786;22;20027;-94
2023/12/01 09:54:00;;;;;;;28.88;14.52;;;;;;;;;;6241389;22;20056;-94
2023/12/01 09:56:27;;;;;;;33.83;15.75;;;;;;;;;;6244152;22;20020;-92
2023/12/01 09:58:53;;;;;;;34.28;15.63;;;;;;;;;;6249057;22;20024;-93
2023/12/01 10:01:21;;;;;;;29.70;14.20;;;;;;;;;;6202133;22;20024;-95
2023/12/01 10:03:47;;;;;;;28.48;15.20;;;;;;;;;;6228520;22;20031;-96
2023/12/01 10:06:13;;;;;;;31.73;15.68;;;;;;;;;;6221345;22;20038;-94
2023/12/01 10:08:42;;;;;;;25.77;14.80;;;;;;;;;;6219614;22;20016;-92
2023/12/01 10:11:21;;;;;;;29.38;13.68;;;;;;;;;;6221307;22;20019;-93
2023/12/01 10:13:51;;;;;;;33.10;15.55;;;;;;;;;;6271112;22;20027;-95
2023/12/01 10:16:18;;;;;;;26.98;14.30;;;;;;;;;;6271085;22;20020;-96
2023/12/01 10:18:58;;;;;;;32.17;14.18;;;;;;;;;;6271328;22;20644;-96
2023/12/01 10:21:45;;;;;;;31.50;15.18;;;;;;;;;;6275642;22;20015;-94
2023/12/01 10:24:20;;;;;;;27.23;14.15;;;;;;;;;;6251748;22;20020;-95
2023/12/01 10:26:46;;;;;;;28.90;13.45;;;;;;;;;;6276420;22;20027;-93
2023/12/01 10:29:28;;;;;;;28.67;13.70;;;;;;;;;;6273940;22;20595;-92
2023/12/01 10:31:55;;;;;;;31.23;14.88;;;;;;;;;;6266709;22;20024;-92
2023/12/01 10:34:21;;;;;;;32.80;15.38;;;;;;;;;;6215644;22;20020;-90
2023/12/01 10:36:48;;;;;;;28.92;13.75;;;;;;;;;;6223835;22;20046;-91
2023/12/01 10:39:17;;;;;;;26.52;13.00;;;;;;;;;;6270937;22;20098;-93
2023/12/01 10:41:44;;;;;;;28.73;14.05;;;;;;;;;;6245394;22;20020;-91
2023/12/01 10:44:15;;;;;;;28.00;14.13;;;;;;;;;;6222005;22;20081;-93
2023/12/01 10:46:41;;;;;;;30.60;13.20;;;;;;;;;;6246622;22;20020;-93
2023/12/01 10:49:08;;;;;;;28.30;14.25;;;;;;;;;;6271918;22;20015;-91
2023/12/01 10:51:34;;;;;;;25.02;11.63;;;;;;;;;;6269904;22;20095;-94
2023/12/01 10:54:01;;;;;;;29.83;15.05;;;;;;;;;;6222725;22;20017;-94
2023/12/01 10:56:30;;;;;;;27.60;13.38;;;;;;;;;;6246526;22;20381;-91
2023/12/01 10:59:03;;;;;;;24.98;13.23;;;;;;;;;;6271553;22;20027;-90
2023/12/01 11:01:29;;;;;;;25.58;12.63;;;;;;;;;;6242260;22;20028;-93
2023/12/01 11:03:57;;;;;;;23.90;13.50;;;;;;;;;;6247020;22;20016;-91
2023/12/01 11:06:28;;;;;;;25.20;13.68;;;;;;;;;;6223324;22;20019;-91
2023/12/01 11:09:24;;;;;;;22.17;12.02;;;;;;;;;;6275107;22;20482;-94
2023/12/01 11:11:57;;;;;;;23.30;11.73;;;;;;;;;;6230183;22;20017;-91
2023/12/01 11:14:25;;;;;;;20.45;11.60;;;;;;;;;;6271708;22;20026;-90
2023/12/01 11:16:52;;;;;;;23.77;13.48;;;;;;;;;;6265845;22;20045;-89
2023/12/01 11:19:18;;;;;;;24.83;13.68;;;;;;;;;;6263462;22;20027;-90
2023/12/01 11:21:45;;;;;;;21.90;12.52;;;;;;;;;;6264662;22;20290;-89
2023/12/01 11:24:31;;;;;;;20.85;12.63;;;;;;;;;;6266831;22;20075;-94
2023/12/01 11:27:03;;;;;;;23.73;13.18;;;;;;;;;;6294912;22;20421;-90
2023/12/01 11:29:33;;;;;;;22.67;12.38;;;;;;;;;;6266369;22;20026;-90
2023/12/01 11:32:00;;;;;;;20.98;12.02;;;;;;;;;;6268479;22;20058;-90
2023/12/01 11:34:26;;;;;;;21.33;12.07;;;;;;;;;;6243208;22;20015;-92
2023/12/01 11:36:56;;;;;;;23.25;13.00;;;;;;;;;;6267207;22;20080;-91
2023/12/01 11:39:32;;;;;;;21.52;13.02;;;;;;;;;;6213457;22;20286;-91
2023/12/01 11:41:58;;;;;;;21.90;11.30;;;;;;;;;;6265932;22;20015;-90
2023/12/01 11:44:24;;;;;;;21.63;10.60;;;;;;;;;;6294286;22;20022;-91
2023/12/01 11:46:57;;;;;;;23.83;13.48;;;;;;;;;;6265407;22;20017;-90
2023/12/01 11:49:27;;;;;;;24.95;11.77;;;;;;;;;;6265141;22;20086;-90
2023/12/01 11:51:53;;;;;;;21.02;11.73;;;;;;;;;;6244663;22;20042;-93
2023/12/01 11:54:35;;;;;;;32.05;14.73;;;;;;;;;;6288244;22;20034;-95
2023/12/01 11:57:05;;;;;;;24.77;13.05;;;;;;;;;;6264274;22;20019;-96
2023/12/01 11:59:50;;;;;;;23.60;13.23;;;;;;;;;;6213469;22;20091;-95
2023/12/01 12:03:06;;;;;;;;;;;;;;;;;;;;;
2023/12/01 12:06:17;;;;;;;;;;;;;;;;;;;;;
2023/12/01 12:09:32;;;;;;;;;;;;;;;;;;;;;
2023/12/01 12:12:04;;;;;;;24.92;13.73;;;;;;;;;;6274440;22;20038;-90
2023/12/01 12:14:31;;;;;;;24.02;12.80;;;;;;;;;;6256797;22;20020;-92
2023/12/01 12:17:44;;;;;;;;;;;;;;;;;;;;;
2023/12/01 12:24:11;;;;;;;;;;;;;;;;;;;;;
2023/12/01 12:29:45;;;;;;;24.70;14.45;;;;;;;;;;6058912;23;20524;-89
2023/12/01 12:32:11;;;;;;;28.95;13.15;;;;;;;;;;6088695;23;20116;-89
2023/12/01 12:34:38;;;;;;;25.83;14.52;;;;;;;;;;6160862;22;20043;-90
2023/12/01 12:44:18;;;;;;;27.70;13.40;;;;;;;;;;6302854;22;20026;-91
2023/12/01 12:47:14;;;;;;;29.80;15.90;;;;;;;;;;6158236;23;20027;-91
2023/12/01 12:49:43;;;;;;;26.02;14.23;;;;;;;;;;6157311;23;20021;-90
2023/12/01 12:52:10;;;;;;;21.42;11.55;;;;;;;;;;6154359;23;20052;-91
2023/12/01 12:54:41;;;;;;;24.88;13.40;;;;;;;;;;6172931;23;20027;-94
2023/12/01 12:57:18;;;;;;;;;;;;;;;;;;6153918;23;20040;-91
2023/12/01 12:59:54;;;;;;;18.75;11.63;;;;;;;;;;6149911;23;19919;-92
2023/12/01 13:02:20;;;;;;;23.05;13.50;;;;;;;;;;6149896;23;20135;-92
2023/12/01 13:54:34;;;;;;;23.15;13.23;;;;;;;;;;6238369;22;20488;31
2023/12/01 13:57:39;;;;;;;22.75;12.18;;;;;;;;;;6200971;23;20091;-92
2023/12/01 14:00:59;;;;;;;23.35;13.88;;;;;;;;;;5965926;23;20655;-92
2023/12/01 14:04:03;;;;;;;26.73;13.70;;;;;;;;;;5960660;23;20769;-91
2023/12/01 14:10:40;;;;;;;23.75;13.07;;;;;;;;;;5950530;23;20028;-91
2023/12/01 14:41:07;;;;;;;26.00;12.90;;;;;;;;;;6265082;22;20493;-91
2023/12/01 15:05:33;;;;;;;27.90;13.43;;;;;;;;;;6263551;22;20102;-92
2023/12/01 15:08:12;;;;;;;22.50;12.82;;;;;;;;;;6211679;22;20104;-90
2023/12/01 15:10:44;;;;;;;16.30;11.20;;;;;;;;;;6212256;22;20055;-91
2023/12/01 15:13:23;;;;;;;;;;;;;;;;;;;;;
2023/12/01 15:15:49;;;;;;;19.15;11.60;;;;;;;;;;6226126;22;20388;-91
2023/12/01 15:19:09;;;;;;;22.55;12.10;;;;;;;;;;6215873;22;20502;-89
2023/12/01 15:21:59;;;;;;;21.15;11.20;;;;;;;;;;6208776;23;20020;-89
2023/12/01 15:25:10;;;;;;;20.63;11.73;;;;;;;;;;6244972;22;20024;-89
2023/12/01 15:27:39;;;;;;;22.58;12.02;;;;;;;;;;6217241;22;20348;-90
2023/12/01 15:30:49;;;;;;;22.48;12.13;;;;;;;;;;6218848;22;20030;-90
2023/12/01 15:39:19;;;;;;;24.83;12.27;;;;;;;;;;6301285;22;20119;-90
2023/12/01 15:41:58;;;;;;;23.42;12.82;;;;;;;;;;6248342;22;20092;-90
2023/12/01 15:44:51;;;;;;;25.15;12.95;;;;;;;;;;6247858;22;20027;-90
2023/12/01 15:47:39;;;;;;;;;;;;;;;;;;;;;
2023/12/01 15:50:22;;;;;;;21.92;12.27;;;;;;;;;;6275376;22;20048;-90
2023/12/01 15:52:50;;;;;;;24.85;12.50;;;;;;;;;;6273356;22;20023;-89
2023/12/01 15:56:02;;;;;;;21.80;12.43;;;;;;;;;;6242713;22;20360;-90
2023/12/01 15:58:57;;;;;;;22.42;12.32;;;;;;;;;;6245212;22;20354;-89
2023/12/01 16:01:39;;;;;;;20.58;11.10;;;;;;;;;;6244976;22;20051;-88
2023/12/01 16:04:05;;;;;;;21.75;12.55;;;;;;;;;;6214254;22;20020;-89
2023/12/01 16:06:31;;;;;;;21.90;13.07;;;;;;;;;;6214351;22;20054;-89
2023/12/01 16:09:06;;;;;;;25.38;12.13;;;;;;;;;;6240841;22;20047;-87
2023/12/01 16:11:32;;;;;;;24.88;12.98;;;;;;;;;;6215788;22;20030;-89
2023/12/01 16:13:58;;;;;;;22.23;12.25;;;;;;;;;;6216079;22;20020;-88
2023/12/01 16:16:24;;;;;;;20.33;12.05;;;;;;;;;;6237561;22;20067;-90
2023/12/01 16:18:55;;;;;;;22.95;13.32;;;;;;;;;;6212122;22;20091;-90
2023/12/01 16:21:28;;;;;;;21.95;12.82;;;;;;;;;;6212340;22;20468;-91
2023/12/01 16:23:54;;;;;;;20.80;12.13;;;;;;;;;;6212863;22;20102;-90
2023/12/01 16:26:21;;;;;;;22.85;13.63;;;;;;;;;;6238377;22;20020;-90
2023/12/01 16:29:14;;;;;;;24.30;13.98;;;;;;;;;;6241758;22;20046;-95
2023/12/01 16:35:16;;;;;;;23.60;12.73;;;;;;;;;;6265418;22;20044;-89
2023/12/01 16:37:47;;;;;;;25.63;13.45;;;;;;;;;;6237336;22;20020;-89
2023/12/01 16:40:13;;;;;;;26.92;13.15;;;;;;;;;;6206429;23;20519;-88
2023/12/01 16:42:39;;;;;;;27.55;14.68;;;;;;;;;;6232490;23;20078;-88
2023/12/01 16:45:06;;;;;;;23.20;14.07;;;;;;;;;;6206427;23;20058;-87
2023/12/01 16:47:36;;;;;;;23.52;14.40;;;;;;;;;;6204748;23;20399;-87